createdAt,value
2023-04-02T00:03:08.870Z,0.00
2023-04-02T00:04:08.870Z,0.00
2023-04-02T00:09:08.715Z,0.00
2023-04-02T00:10:08.714Z,0.00
2023-04-02T00:11:08.695Z,0.00
2023-04-02T00:12:08.687Z,0.00
2023-04-02T00:13:08.668Z,0.00
2023-04-02T00:14:08.662Z,0.00
2023-04-02T00:15:08.646Z,0.00
2023-04-02T00:16:08.678Z,0.00
2023-04-02T00:18:08.659Z,0.00
2023-04-02T00:19:08.632Z,0.00
2023-04-02T00:20:14.608Z,0.00
2023-04-02T00:21:08.583Z,0.00
2023-04-02T00:22:08.582Z,0.00
2023-04-02T00:23:08.563Z,0.00
2023-04-02T00:24:08.564Z,0.00
2023-04-02T00:25:08.544Z,0.00
2023-04-02T00:26:08.747Z,0.00
2023-04-02T00:27:08.524Z,0.00
2023-04-02T00:28:08.521Z,0.00
2023-04-02T00:29:08.506Z,0.00
2023-04-02T00:30:08.500Z,0.00
2023-04-02T00:31:08.485Z,0.00
2023-04-02T00:32:08.557Z,0.00
2023-04-02T00:33:08.504Z,0.00
2023-04-02T00:34:08.457Z,0.00
2023-04-02T00:35:08.464Z,0.00
2023-04-02T00:36:08.507Z,0.00
2023-04-02T00:37:08.426Z,0.00
2023-04-02T00:38:08.418Z,0.00
2023-04-02T00:39:08.406Z,0.00
2023-04-02T00:40:08.599Z,0.00
2023-04-02T00:41:08.379Z,0.00
2023-04-02T00:42:08.374Z,0.00
2023-04-02T00:43:08.368Z,0.00
2023-04-02T00:44:08.353Z,0.00
2023-04-02T00:45:08.338Z,0.00
2023-04-02T00:46:08.368Z,0.00
2023-04-02T00:47:08.320Z,0.00
2023-04-02T00:48:08.325Z,0.00
2023-04-02T00:49:08.297Z,0.00
2023-04-02T00:50:08.295Z,0.00
2023-04-02T00:51:08.299Z,0.00
2023-04-02T00:52:08.271Z,0.00
2023-04-02T00:53:08.264Z,0.00
2023-04-02T00:54:08.453Z,0.00
2023-04-02T00:55:08.237Z,0.00
2023-04-02T00:56:08.234Z,0.00
2023-04-02T00:57:08.477Z,0.00
2023-04-02T00:58:08.215Z,0.00
2023-04-02T00:59:08.194Z,0.00
2023-04-02T01:00:08.192Z,0.00
2023-04-02T01:01:08.200Z,0.00
2023-04-02T01:02:08.226Z,0.00
2023-04-02T01:04:08.147Z,0.00
2023-04-02T01:05:08.126Z,0.00
2023-04-02T01:06:08.129Z,0.00
2023-04-02T01:07:08.131Z,0.00
2023-04-02T01:08:08.114Z,0.00
2023-04-02T01:09:08.106Z,0.00
2023-04-02T01:10:08.088Z,0.00
2023-04-02T01:11:08.066Z,0.00
2023-04-02T01:12:08.077Z,0.00
2023-04-02T01:13:08.047Z,0.00
2023-04-02T01:14:08.352Z,0.00
2023-04-02T01:15:08.032Z,0.00
2023-04-02T01:16:08.111Z,0.00
2023-04-02T01:17:08.003Z,0.00
2023-04-02T01:18:08.056Z,0.00
2023-04-02T01:19:07.996Z,0.00
2023-04-02T01:20:07.992Z,0.00
2023-04-02T01:21:07.963Z,0.00
2023-04-02T01:22:07.957Z,0.00
2023-04-02T01:23:07.963Z,0.00
2023-04-02T01:24:07.944Z,0.00
2023-04-02T01:25:07.921Z,0.00
2023-04-02T01:26:07.925Z,0.00
2023-04-02T01:27:07.900Z,0.00
2023-04-02T01:28:07.892Z,0.00
2023-04-02T01:29:07.874Z,0.00
2023-04-02T01:30:07.876Z,0.00
2023-04-02T01:31:07.905Z,0.00
2023-04-02T01:32:07.857Z,0.00
2023-04-02T01:33:07.855Z,0.00
2023-04-02T01:34:07.832Z,0.00
2023-04-02T01:35:07.814Z,0.00
2023-04-02T01:36:07.837Z,0.00
2023-04-02T01:37:07.989Z,0.00
2023-04-02T01:38:07.792Z,0.00
2023-04-02T01:39:07.795Z,0.00
2023-04-02T01:40:07.778Z,0.00
2023-04-02T01:41:07.752Z,0.00
2023-04-02T01:42:07.748Z,0.00
2023-04-02T01:43:07.734Z,0.00
2023-04-02T01:44:07.728Z,0.00
2023-04-02T01:45:07.712Z,0.00
2023-04-02T01:46:07.754Z,0.00
2023-04-02T01:47:07.692Z,0.00
2023-04-02T01:48:07.791Z,0.00
2023-04-02T01:49:07.675Z,0.00
2023-04-02T01:50:07.676Z,0.00
2023-04-02T01:51:07.663Z,0.00
2023-04-02T01:52:07.642Z,0.00
2023-04-02T01:53:07.630Z,0.00
2023-04-02T01:54:07.632Z,0.00
2023-04-02T01:55:07.624Z,0.00
2023-04-02T01:56:07.606Z,0.00
2023-04-02T01:57:07.656Z,0.00
2023-04-02T01:58:13.592Z,0.00
2023-04-02T01:59:07.566Z,0.00
2023-04-02T02:00:07.565Z,0.00
2023-04-02T02:01:07.569Z,0.00
2023-04-02T02:02:07.586Z,0.00
2023-04-02T02:03:07.538Z,0.00
2023-04-02T02:04:09.575Z,0.00
2023-04-02T02:05:07.510Z,0.00
2023-04-02T02:06:07.499Z,0.00
2023-04-02T02:07:07.495Z,0.00
2023-04-02T02:08:07.471Z,0.00
2023-04-02T02:09:13.478Z,0.00
2023-04-02T02:10:07.446Z,0.00
2023-04-02T02:11:07.701Z,0.00
2023-04-02T02:12:07.427Z,0.00
2023-04-02T02:13:07.429Z,0.00
2023-04-02T02:14:07.410Z,0.00
2023-04-02T02:15:07.412Z,0.00
2023-04-02T02:16:07.449Z,0.00
2023-04-02T02:17:07.404Z,0.00
2023-04-02T02:18:07.368Z,0.00
2023-04-02T02:19:07.370Z,0.00
2023-04-02T02:20:07.352Z,0.00
2023-04-02T02:21:07.347Z,0.00
2023-04-02T02:22:07.326Z,0.00
2023-04-02T02:23:07.330Z,0.00
2023-04-02T02:24:07.310Z,0.00
2023-04-02T02:25:07.302Z,0.00
2023-04-02T02:26:07.289Z,0.00
2023-04-02T02:27:07.312Z,0.00
2023-04-02T02:28:07.271Z,0.00
2023-04-02T02:29:07.261Z,0.00
2023-04-02T02:30:13.262Z,0.00
2023-04-02T02:31:07.243Z,0.00
2023-04-02T02:32:07.295Z,0.00
2023-04-02T02:33:07.227Z,0.00
2023-04-02T02:34:07.212Z,0.00
2023-04-02T02:35:07.404Z,0.00
2023-04-02T02:36:07.226Z,0.00
2023-04-02T02:37:07.213Z,0.00
2023-04-02T02:38:07.165Z,0.00
2023-04-02T02:39:13.168Z,0.00
2023-04-02T02:40:07.145Z,0.00
2023-04-02T02:41:07.141Z,0.00
2023-04-02T02:42:07.123Z,0.00
2023-04-02T02:43:07.157Z,0.00
2023-04-02T02:44:07.102Z,0.00
2023-04-02T02:45:07.101Z,0.00
2023-04-02T02:46:07.161Z,0.00
2023-04-02T02:47:07.077Z,0.00
2023-04-02T02:48:07.106Z,0.00
2023-04-02T02:49:07.061Z,0.00
2023-04-02T02:50:07.044Z,0.00
2023-04-02T02:51:07.037Z,0.00
2023-04-02T02:52:07.020Z,0.00
2023-04-02T02:53:07.015Z,0.00
2023-04-02T02:54:06.996Z,0.00
2023-04-02T02:55:07.009Z,0.00
2023-04-02T02:56:06.968Z,0.00
2023-04-02T02:57:07.005Z,0.00
2023-04-02T02:58:06.961Z,0.00
2023-04-02T02:59:06.992Z,0.00
2023-04-02T03:00:06.929Z,0.00
2023-04-02T03:01:12.960Z,0.00
2023-04-02T03:02:06.958Z,0.00
2023-04-02T03:03:06.957Z,0.00
2023-04-02T03:04:07.058Z,0.00
2023-04-02T03:05:06.890Z,0.00
2023-04-02T03:06:06.873Z,0.00
2023-04-02T03:07:07.076Z,0.00
2023-04-02T03:08:06.854Z,0.00
2023-04-02T03:09:06.851Z,0.00
2023-04-02T03:12:06.814Z,0.00
2023-04-02T03:56:06.361Z,0.00
2023-04-02T04:46:05.856Z,1.00
2023-04-02T04:47:05.807Z,1.00
2023-04-02T04:48:05.832Z,1.00
2023-04-02T04:49:05.758Z,1.00
2023-04-02T04:50:05.742Z,2.00
2023-04-02T04:51:05.763Z,2.00
2023-04-02T04:52:05.730Z,2.00
2023-04-02T04:53:05.744Z,2.00
2023-04-02T04:54:05.695Z,1.00
2023-04-02T04:55:06.108Z,2.00
2023-04-02T04:56:18.825Z,3.00
2023-04-02T04:57:06.715Z,5.00
2023-04-02T04:58:05.667Z,5.00
2023-04-02T04:59:05.656Z,7.00
2023-04-02T05:00:05.642Z,9.00
2023-04-02T05:01:05.646Z,13.00
2023-04-02T05:02:05.621Z,16.00
2023-04-02T05:03:05.671Z,18.00
2023-04-02T05:04:05.595Z,18.00
2023-04-02T05:05:05.620Z,23.00
2023-04-02T05:06:05.573Z,26.00
2023-04-02T05:07:05.603Z,30.00
2023-04-02T05:08:05.556Z,37.00
2023-04-02T05:09:05.552Z,39.00
2023-04-02T05:10:05.542Z,42.00
2023-04-02T05:11:05.538Z,46.00
2023-04-02T05:12:05.516Z,51.00
2023-04-02T05:13:07.559Z,60.00
2023-04-02T05:14:05.503Z,62.00
2023-04-02T05:15:05.488Z,67.00
2023-04-02T05:16:05.513Z,71.00
2023-04-02T05:17:05.468Z,72.00
2023-04-02T05:18:11.476Z,77.00
2023-04-02T05:19:05.482Z,83.00
2023-04-02T05:20:05.436Z,89.00
2023-04-02T05:21:05.418Z,91.00
2023-04-02T05:22:05.416Z,99.00
2023-04-02T05:23:05.432Z,106.00
2023-04-02T05:24:05.389Z,110.00
2023-04-02T05:25:05.378Z,119.00
2023-04-02T05:26:05.389Z,132.00
2023-04-02T05:27:05.355Z,137.00
2023-04-02T05:28:05.380Z,142.00
2023-04-02T05:29:05.341Z,149.00
2023-04-02T05:30:05.333Z,153.00
2023-04-02T05:31:05.550Z,149.00
2023-04-02T05:32:05.313Z,154.00
2023-04-02T05:33:05.394Z,167.00
2023-04-02T05:34:05.295Z,193.00
2023-04-02T05:35:05.279Z,200.00
2023-04-02T05:36:05.302Z,172.00
2023-04-02T05:37:06.928Z,154.00
2023-04-02T05:38:05.252Z,145.00
2023-04-02T05:39:05.265Z,133.00
2023-04-02T05:40:05.256Z,122.00
2023-04-02T05:41:05.419Z,120.00
2023-04-02T05:42:05.224Z,115.00
2023-04-02T05:43:05.200Z,111.00
2023-04-02T05:44:05.195Z,99.00
2023-04-02T05:45:05.180Z,98.00
2023-04-02T05:46:05.170Z,91.00
2023-04-02T05:47:05.146Z,91.00
2023-04-02T05:48:11.154Z,85.00
2023-04-02T05:49:05.130Z,78.00
2023-04-02T05:50:05.126Z,110.00
2023-04-02T05:51:05.108Z,145.00
2023-04-02T05:52:05.111Z,134.00
2023-04-02T05:53:06.137Z,142.00
2023-04-02T05:54:05.096Z,144.00
2023-04-02T05:55:05.111Z,152.00
2023-04-02T05:56:05.076Z,151.00
2023-04-02T05:57:05.083Z,137.00
2023-04-02T05:59:05.030Z,145.00
2023-04-02T06:00:05.036Z,180.00
2023-04-02T06:01:05.017Z,169.00
2023-04-02T06:02:05.033Z,125.00
2023-04-02T06:03:05.042Z,158.00
2023-04-02T06:04:05.055Z,205.00
2023-04-02T06:05:04.962Z,235.00
2023-04-02T06:06:04.965Z,254.00
2023-04-02T06:07:10.955Z,302.00
2023-04-02T06:08:04.949Z,330.00
2023-04-02T06:09:05.131Z,344.00
2023-04-02T06:10:04.956Z,321.00
2023-04-02T06:11:04.933Z,303.00
2023-04-02T06:12:04.905Z,356.00
2023-04-02T06:13:04.876Z,361.00
2023-04-02T06:14:04.891Z,384.00
2023-04-02T06:15:04.866Z,398.00
2023-04-02T06:16:04.852Z,408.00
2023-04-02T06:17:04.850Z,396.00
2023-04-02T06:18:04.906Z,405.00
2023-04-02T06:19:04.815Z,433.00
2023-04-02T06:20:04.812Z,447.00
2023-04-02T06:21:04.797Z,469.00
2023-04-02T06:22:04.794Z,472.00
2023-04-02T06:23:04.795Z,490.00
2023-04-02T06:24:10.775Z,528.00
2023-04-02T06:25:04.766Z,549.00
2023-04-02T06:26:04.750Z,593.00
2023-04-02T06:27:04.764Z,630.00
2023-04-02T06:28:04.734Z,629.00
2023-04-02T06:29:04.708Z,601.00
2023-04-02T06:30:04.715Z,638.00
2023-04-02T06:31:04.800Z,688.00
2023-04-02T06:32:04.697Z,694.00
2023-04-02T06:33:04.932Z,705.00
2023-04-02T06:34:04.685Z,712.00
2023-04-02T06:35:04.652Z,789.00
2023-04-02T06:36:04.707Z,817.00
2023-04-02T06:37:04.856Z,856.00
2023-04-02T06:38:04.645Z,860.00
2023-04-02T06:39:04.611Z,933.00
2023-04-02T06:40:04.614Z,927.00
2023-04-02T06:41:04.595Z,974.00
2023-04-02T06:42:04.597Z,967.00
2023-04-02T06:43:10.607Z,1035.00
2023-04-02T06:44:10.571Z,1129.00
2023-04-02T06:45:04.554Z,1182.00
2023-04-02T06:46:04.618Z,1187.00
2023-04-02T06:47:04.537Z,1189.00
2023-04-02T06:48:04.608Z,1300.00
2023-04-02T06:49:04.523Z,1366.00
2023-04-02T06:50:10.516Z,1364.00
2023-04-02T06:51:04.490Z,1391.00
2023-04-02T06:52:04.490Z,1519.00
2023-04-02T06:53:04.463Z,1464.00
2023-04-02T06:54:04.465Z,1414.00
2023-04-02T06:55:04.463Z,1352.00
2023-04-02T06:56:10.470Z,1377.00
2023-04-02T06:57:04.458Z,1333.00
2023-04-02T06:58:04.421Z,1330.00
2023-04-02T06:59:04.446Z,1454.00
2023-04-02T07:00:04.403Z,1459.00
2023-04-02T07:01:04.482Z,1453.00
2023-04-02T07:02:04.377Z,1381.00
2023-04-02T07:03:04.405Z,1531.00
2023-04-02T07:04:04.353Z,1620.00
2023-04-02T07:05:04.474Z,1662.00
2023-04-02T07:06:04.339Z,1532.00
2023-04-02T07:07:04.310Z,1455.00
2023-04-02T07:08:04.315Z,1445.00
2023-04-02T07:09:04.293Z,1461.00
2023-04-02T07:10:04.292Z,1473.00
2023-04-02T07:11:10.278Z,1363.00
2023-04-02T07:12:04.274Z,1348.00
2023-04-02T07:13:04.453Z,1052.00
2023-04-02T07:14:04.250Z,1159.00
2023-04-02T07:15:04.255Z,1323.00
2023-04-02T07:16:04.488Z,1408.00
2023-04-02T07:17:04.206Z,1411.00
2023-04-02T07:18:04.300Z,1506.00
2023-04-02T07:19:04.195Z,1450.00
2023-04-02T07:20:04.185Z,1436.00
2023-04-02T07:21:04.164Z,1407.00
2023-04-02T07:22:04.154Z,1482.00
2023-04-02T07:23:04.152Z,1549.00
2023-04-02T07:24:04.134Z,1483.00
2023-04-02T07:25:04.136Z,1419.00
2023-04-02T07:26:04.116Z,1397.00
2023-04-02T07:27:04.113Z,1366.00
2023-04-02T07:28:04.099Z,1562.00
2023-04-02T07:29:04.087Z,1730.00
2023-04-02T07:30:04.074Z,1516.00
2023-04-02T07:31:04.131Z,1573.00
2023-04-02T07:32:04.048Z,1713.00
2023-04-02T07:33:04.078Z,1836.00
2023-04-02T07:34:04.029Z,1717.00
2023-04-02T07:35:04.028Z,1837.00
2023-04-02T07:36:04.049Z,1693.00
2023-04-02T07:37:04.005Z,2300.00
2023-04-02T07:38:03.983Z,2146.00
2023-04-02T07:39:03.986Z,1972.00
2023-04-02T07:40:03.961Z,2076.00
2023-04-02T07:41:03.973Z,1780.00
2023-04-02T07:42:04.149Z,2052.00
2023-04-02T07:43:04.151Z,1983.00
2023-04-02T07:44:03.946Z,1985.00
2023-04-02T07:45:05.931Z,1892.00
2023-04-02T07:46:04.116Z,1838.00
2023-04-02T07:47:04.106Z,2019.00
2023-04-02T07:48:10.089Z,1827.00
2023-04-02T07:49:05.927Z,1719.00
2023-04-02T07:50:03.881Z,2390.00
2023-04-02T07:51:03.852Z,1748.00
2023-04-02T07:52:03.853Z,2128.00
2023-04-02T07:53:03.835Z,2227.00
2023-04-02T07:54:03.835Z,2246.00
2023-04-02T07:55:03.812Z,2202.00
2023-04-02T07:56:03.821Z,2089.00
2023-04-02T07:57:03.820Z,1940.00
2023-04-02T07:58:03.787Z,1774.00
2023-04-02T07:59:03.765Z,2215.00
2023-04-02T08:00:03.765Z,1793.00
2023-04-02T08:01:03.888Z,1966.00
2023-04-02T08:02:03.768Z,2133.00
2023-04-02T08:03:03.862Z,1943.00
2023-04-02T08:04:09.770Z,2195.00
2023-04-02T08:05:03.710Z,2114.00
2023-04-02T08:06:09.711Z,2110.00
2023-04-02T08:07:03.694Z,2072.00
2023-04-02T08:08:03.750Z,2112.00
2023-04-02T08:09:03.679Z,1764.00
2023-04-02T08:10:03.674Z,1828.00
2023-04-02T08:11:03.651Z,1901.00
2023-04-02T08:12:03.644Z,1932.00
2023-04-02T08:13:09.637Z,1779.00
2023-04-02T08:14:03.619Z,1644.00
2023-04-02T08:15:03.601Z,1685.00
2023-04-02T08:16:03.595Z,1928.00
2023-04-02T08:17:03.596Z,1749.00
2023-04-02T08:18:03.620Z,1835.00
2023-04-02T08:19:03.586Z,1765.00
2023-04-02T08:20:03.564Z,1744.00
2023-04-02T08:21:03.545Z,1819.00
2023-04-02T08:22:03.532Z,2146.00
2023-04-02T08:23:03.570Z,2004.00
2023-04-02T08:24:05.562Z,2013.00
2023-04-02T08:25:03.507Z,1780.00
2023-04-02T08:26:03.485Z,1834.00
2023-04-02T08:27:03.486Z,1866.00
2023-04-02T08:28:03.669Z,2116.00
2023-04-02T08:29:03.674Z,1919.00
2023-04-02T08:30:03.464Z,2088.00
2023-04-02T08:31:03.539Z,2198.00
2023-04-02T08:32:03.439Z,2210.00
2023-04-02T08:33:03.668Z,2056.00
2023-04-02T08:34:03.406Z,2031.00
2023-04-02T08:35:09.439Z,1808.00
2023-04-02T08:36:03.445Z,2060.00
2023-04-02T08:37:03.397Z,2109.00
2023-04-02T08:38:03.363Z,2161.00
2023-04-02T08:39:03.353Z,2036.00
2023-04-02T08:40:03.345Z,1871.00
2023-04-02T08:41:03.341Z,2191.00
2023-04-02T08:42:03.327Z,2476.00
2023-04-02T08:43:03.321Z,2086.00
2023-04-02T08:44:03.304Z,2048.00
2023-04-02T08:45:10.797Z,2457.00
2023-04-02T08:46:04.327Z,2856.00
2023-04-02T08:47:09.285Z,3005.00
2023-04-02T08:48:03.526Z,2988.00
2023-04-02T08:49:03.458Z,2656.00
2023-04-02T08:50:03.233Z,3646.00
2023-04-02T08:51:03.253Z,3221.00
2023-04-02T08:52:03.221Z,2776.00
2023-04-02T08:53:03.210Z,2752.00
2023-04-02T08:54:09.211Z,2487.00
2023-04-02T08:55:03.402Z,2702.00
2023-04-02T08:56:03.171Z,2593.00
2023-04-02T08:57:03.273Z,2629.00
2023-04-02T08:58:03.149Z,2154.00
2023-04-02T08:59:03.146Z,2437.00
2023-04-02T09:00:03.135Z,2877.00
2023-04-02T09:01:03.127Z,2277.00
2023-04-02T09:02:03.393Z,1949.00
2023-04-02T09:03:03.189Z,2193.00
2023-04-02T09:04:03.089Z,2335.00
2023-04-02T09:05:03.124Z,2240.00
2023-04-02T09:06:03.065Z,2407.00
2023-04-02T09:07:03.081Z,2891.00
2023-04-02T09:08:03.039Z,2732.00
2023-04-02T09:09:03.052Z,3122.00
2023-04-02T09:10:03.033Z,3226.00
2023-04-02T09:11:03.018Z,3603.00
2023-04-02T09:12:03.011Z,3670.00
2023-04-02T09:13:03.006Z,3900.00
2023-04-02T09:14:08.998Z,3151.00
2023-04-02T09:15:03.007Z,3153.00
2023-04-02T09:16:03.032Z,3458.00
2023-04-02T09:17:02.954Z,3732.00
2023-04-02T09:18:02.950Z,3392.00
2023-04-02T09:19:02.939Z,3969.00
2023-04-02T09:20:02.918Z,3973.00
2023-04-02T09:21:02.916Z,3580.00
2023-04-02T09:22:03.094Z,3736.00
2023-04-02T09:23:02.914Z,3737.00
2023-04-02T09:24:04.017Z,3615.00
2023-04-02T09:25:02.877Z,3440.00
2023-04-02T09:26:04.559Z,3469.00
2023-04-02T09:27:02.878Z,3226.00
2023-04-02T09:28:03.042Z,3614.00
2023-04-02T09:29:03.071Z,3278.00
2023-04-02T09:30:37.522Z,3962.00
2023-04-02T09:31:37.577Z,4273.00
2023-04-02T09:32:43.516Z,3656.00
2023-04-02T09:33:43.491Z,3043.00
2023-04-02T09:34:37.463Z,3720.00
2023-04-02T09:35:37.594Z,3208.00
2023-04-02T09:36:37.447Z,3376.00
2023-04-02T09:37:37.447Z,3781.00
2023-04-02T09:38:37.652Z,3899.00
2023-04-02T09:39:37.421Z,5326.00
2023-04-02T09:40:37.401Z,5246.00
2023-04-02T09:41:37.447Z,4511.00
2023-04-02T09:42:37.377Z,5864.00
2023-04-02T09:43:37.376Z,5968.00
2023-04-02T09:44:37.361Z,6347.00
2023-04-02T09:45:37.515Z,7148.00
2023-04-02T09:46:37.395Z,6295.00
2023-04-02T09:47:37.397Z,5963.00
2023-04-02T09:48:37.318Z,4553.00
2023-04-02T09:49:37.318Z,4987.00
2023-04-02T09:50:37.297Z,5509.00
2023-04-02T09:51:37.289Z,5153.00
2023-04-02T09:52:37.276Z,4805.00
2023-04-02T09:53:37.279Z,5833.00
2023-04-02T09:54:37.277Z,4915.00
2023-04-02T09:55:37.789Z,5288.00
2023-04-02T09:56:37.232Z,5940.00
2023-04-02T09:57:37.224Z,5320.00
2023-04-02T09:58:37.207Z,4660.00
2023-04-02T09:59:37.201Z,4760.00
2023-04-02T10:00:37.204Z,5500.00
2023-04-02T10:01:37.373Z,5391.00
2023-04-02T10:02:37.238Z,5260.00
2023-04-02T10:03:37.152Z,5133.00
2023-04-02T10:04:37.205Z,5168.00
2023-04-02T10:05:40.948Z,4962.00
2023-04-02T10:06:37.116Z,4664.00
2023-04-02T10:07:37.117Z,5437.00
2023-04-02T10:08:37.096Z,4612.00
2023-04-02T10:09:37.134Z,5729.00
2023-04-02T10:10:37.390Z,5702.00
2023-04-02T10:11:46.321Z,4907.00
2023-04-02T10:12:38.095Z,5184.00
2023-04-02T10:13:37.049Z,6338.00
2023-04-02T10:14:37.037Z,5849.00
2023-04-02T10:15:37.192Z,5868.00
2023-04-02T10:16:37.084Z,6578.00
2023-04-02T10:17:37.044Z,7655.00
2023-04-02T10:18:36.996Z,8458.00
2023-04-02T10:19:36.975Z,7306.00
2023-04-02T10:20:50.416Z,5085.00
2023-04-02T10:21:36.951Z,6098.00
2023-04-02T10:22:36.955Z,6144.00
2023-04-02T10:23:36.944Z,5748.00
2023-04-02T10:24:36.931Z,5473.00
2023-04-02T10:25:37.280Z,5919.00
2023-04-02T10:26:36.952Z,6252.00
2023-04-02T10:27:36.895Z,5791.00
2023-04-02T10:28:36.886Z,5227.00
2023-04-02T10:29:36.867Z,4291.00
2023-04-02T10:30:36.889Z,4742.00
2023-04-02T10:31:36.851Z,5141.00
2023-04-02T10:32:36.925Z,5567.00
2023-04-02T10:33:36.825Z,4804.00
2023-04-02T10:34:36.833Z,4434.00
2023-04-02T10:35:37.028Z,3398.00
2023-04-02T10:36:36.813Z,3675.00
2023-04-02T10:37:36.790Z,5643.00
2023-04-02T10:38:36.789Z,5604.00
2023-04-02T10:39:42.772Z,6869.00
2023-04-02T10:40:36.767Z,6623.00
2023-04-02T10:41:36.758Z,5086.00
2023-04-02T10:42:36.784Z,5371.00
2023-04-02T10:43:36.725Z,5965.00
2023-04-02T10:44:36.721Z,6009.00
2023-04-02T10:45:37.168Z,6824.00
2023-04-02T10:46:36.772Z,8602.00
2023-04-02T10:47:38.793Z,8351.00
2023-04-02T10:48:36.668Z,6543.00
2023-04-02T10:49:36.768Z,7137.00
2023-04-02T10:50:36.660Z,7928.00
2023-04-02T10:51:36.648Z,8565.00
2023-04-02T10:52:36.632Z,8409.00
2023-04-02T10:53:36.637Z,10553.00
2023-04-02T10:54:36.607Z,8869.00
2023-04-02T10:55:36.894Z,7826.00
2023-04-02T10:56:47.966Z,9318.00
2023-04-02T10:57:37.762Z,9701.00
2023-04-02T10:58:36.586Z,9444.00
2023-04-02T10:59:36.554Z,9396.00
2023-04-02T11:00:36.549Z,10864.00
2023-04-02T11:01:36.565Z,12624.00
2023-04-02T11:02:36.911Z,12419.00
2023-04-02T11:03:36.628Z,12474.00
2023-04-02T11:04:36.528Z,15472.00
2023-04-02T11:05:36.711Z,14881.00
2023-04-02T11:06:36.475Z,13795.00
2023-04-02T11:07:36.500Z,12656.00
2023-04-02T11:08:38.521Z,10465.00
2023-04-02T11:09:36.468Z,7346.00
2023-04-02T11:10:36.485Z,6600.00
2023-04-02T11:11:36.423Z,6338.00
2023-04-02T11:12:41.374Z,4989.00
2023-04-02T11:13:36.394Z,5241.00
2023-04-02T11:14:36.425Z,4991.00
2023-04-02T11:15:36.703Z,5276.00
2023-04-02T11:16:38.860Z,5479.00
2023-04-02T11:17:37.419Z,5621.00
2023-04-02T11:18:36.362Z,5898.00
2023-04-02T11:19:36.338Z,5379.00
2023-04-02T11:20:36.343Z,6472.00
2023-04-02T11:21:42.208Z,5498.00
2023-04-02T11:22:37.344Z,5260.00
2023-04-02T11:23:36.294Z,8470.00
2023-04-02T11:24:36.285Z,8393.00
2023-04-02T11:25:36.746Z,6327.00
2023-04-02T11:26:36.277Z,7564.00
2023-04-02T11:27:36.248Z,8851.00
2023-04-02T11:28:36.247Z,8872.00
2023-04-02T11:29:36.226Z,9903.00
2023-04-02T11:30:42.259Z,8281.00
2023-04-02T11:31:36.263Z,8818.00
2023-04-02T11:32:36.230Z,9611.00
2023-04-02T11:33:39.259Z,9280.00
2023-04-02T11:34:42.191Z,7233.00
2023-04-02T11:35:36.400Z,6244.00
2023-04-02T11:36:36.158Z,6134.00
2023-04-02T11:37:36.141Z,4956.00
2023-04-02T11:38:36.137Z,5472.00
2023-04-02T11:39:36.116Z,5200.00
2023-04-02T11:40:36.114Z,4608.00
2023-04-02T11:41:36.094Z,4031.00
2023-04-02T11:42:36.104Z,4484.00
2023-04-02T11:43:36.224Z,4653.00
2023-04-02T11:44:36.070Z,4394.00
2023-04-02T11:45:46.514Z,4556.00
2023-04-02T11:46:36.113Z,4493.00
2023-04-02T11:47:36.068Z,3963.00
2023-04-02T11:48:36.062Z,3733.00
2023-04-02T11:49:36.097Z,3385.00
2023-04-02T11:50:36.009Z,3257.00
2023-04-02T11:51:35.985Z,3276.00
2023-04-02T11:52:35.988Z,3034.00
2023-04-02T11:53:35.973Z,2737.00
2023-04-02T11:54:35.961Z,2602.00
2023-04-02T11:55:36.338Z,2856.00
2023-04-02T11:56:35.940Z,3065.00
2023-04-02T11:57:36.099Z,3223.00
2023-04-02T11:58:35.921Z,3246.00
2023-04-02T11:59:35.910Z,3567.00
2023-04-02T12:00:36.106Z,3494.00
2023-04-02T12:01:35.883Z,3789.00
2023-04-02T12:02:36.043Z,4361.00
2023-04-02T12:03:35.856Z,4052.00
2023-04-02T12:04:41.869Z,3671.00
2023-04-02T12:05:36.050Z,2732.00
2023-04-02T12:06:42.046Z,3547.00
2023-04-02T12:07:35.833Z,3619.00
2023-04-02T12:08:44.224Z,3856.00
2023-04-02T12:09:36.891Z,3397.00
2023-04-02T12:10:41.796Z,3732.00
2023-04-02T12:11:35.784Z,4491.00
2023-04-02T12:12:35.772Z,4338.00
2023-04-02T12:13:35.742Z,3994.00
2023-04-02T12:14:35.760Z,3687.00
2023-04-02T12:15:35.979Z,3557.00
2023-04-02T12:16:35.789Z,3811.00
2023-04-02T12:17:35.716Z,3464.00
2023-04-02T12:18:35.723Z,3467.00
2023-04-02T12:19:35.683Z,3658.00
2023-04-02T12:20:35.899Z,3700.00
2023-04-02T12:21:35.654Z,3849.00
2023-04-02T12:22:35.654Z,3812.00
2023-04-02T12:23:35.657Z,4065.00
2023-04-02T12:24:35.629Z,3712.00
2023-04-02T12:25:35.618Z,3799.00
2023-04-02T12:26:35.624Z,3257.00
2023-04-02T12:27:35.599Z,2624.00
2023-04-02T12:28:35.587Z,3758.00
2023-04-02T12:29:35.771Z,3606.00
2023-04-02T12:30:35.772Z,3000.00
2023-04-02T12:31:35.549Z,2141.00
2023-04-02T12:32:35.578Z,2673.00
2023-04-02T12:33:35.525Z,2912.00
2023-04-02T12:34:35.745Z,3318.00
2023-04-02T12:35:35.525Z,4406.00
2023-04-02T12:36:35.713Z,3332.00
2023-04-02T12:37:35.496Z,3514.00
2023-04-02T12:38:35.479Z,4509.00
2023-04-02T12:39:35.471Z,4065.00
2023-04-02T12:40:35.763Z,3243.00
2023-04-02T12:41:35.434Z,3010.00
2023-04-02T12:42:35.436Z,2476.00
2023-04-02T12:43:35.420Z,3227.00
2023-04-02T12:44:35.412Z,4326.00
2023-04-02T12:45:35.598Z,4022.00
2023-04-02T12:46:35.537Z,3692.00
2023-04-02T12:47:35.418Z,3025.00
2023-04-02T12:48:35.374Z,2789.00
2023-04-02T12:49:35.369Z,2761.00
2023-04-02T12:50:35.660Z,3081.00
2023-04-02T12:51:35.330Z,4292.00
2023-04-02T12:52:35.329Z,3607.00
2023-04-02T12:53:35.319Z,3931.00
2023-04-02T12:54:35.306Z,4605.00
2023-04-02T12:55:41.297Z,6457.00
2023-04-02T12:56:35.286Z,4437.00
2023-04-02T12:57:35.447Z,3673.00
2023-04-02T12:58:41.280Z,6812.00
2023-04-02T12:59:35.243Z,8262.00
2023-04-02T13:00:35.532Z,6685.00
2023-04-02T13:01:35.239Z,7460.00
2023-04-02T13:02:41.306Z,6757.00
2023-04-02T13:03:35.219Z,4865.00
2023-04-02T13:04:35.238Z,4762.00
2023-04-02T13:05:35.179Z,6220.00
2023-04-02T13:06:35.218Z,10117.00
2023-04-02T13:07:35.262Z,10177.00
2023-04-02T13:08:35.150Z,10064.00
2023-04-02T13:09:35.147Z,8615.00
2023-04-02T13:10:35.431Z,7240.00
2023-04-02T13:11:35.119Z,6551.00
2023-04-02T13:12:35.125Z,6675.00
2023-04-02T13:13:35.091Z,7033.00
2023-04-02T13:14:35.088Z,6818.00
2023-04-02T13:15:35.071Z,6492.00
2023-04-02T13:16:41.163Z,6316.00
2023-04-02T13:17:35.086Z,6296.00
2023-04-02T13:18:35.050Z,6080.00
2023-04-02T13:19:35.026Z,5817.00
2023-04-02T13:20:35.308Z,4499.00
2023-04-02T13:21:35.012Z,3430.00
2023-04-02T13:22:35.044Z,3380.00
2023-04-02T13:23:34.990Z,2778.00
2023-04-02T13:24:34.982Z,4156.00
2023-04-02T13:25:34.969Z,5291.00
2023-04-02T13:26:34.978Z,5161.00
2023-04-02T13:27:34.950Z,5037.00
2023-04-02T13:28:34.953Z,5064.00
2023-04-02T13:29:41.130Z,4119.00
2023-04-02T13:30:35.157Z,5427.00
2023-04-02T13:31:34.943Z,5335.00
2023-04-02T13:32:34.951Z,7018.00
2023-04-02T13:33:36.955Z,8216.00
2023-04-02T13:34:34.876Z,8237.00
2023-04-02T13:35:35.127Z,5828.00
2023-04-02T13:36:40.858Z,5901.00
2023-04-02T13:37:34.880Z,7801.00
2023-04-02T13:38:34.850Z,8400.00
2023-04-02T13:39:34.828Z,8512.00
2023-04-02T13:40:34.970Z,8845.00
2023-04-02T13:41:34.799Z,8780.00
2023-04-02T13:42:40.795Z,8561.00
2023-04-02T13:43:34.780Z,8313.00
2023-04-02T13:44:34.761Z,7774.00
2023-04-02T13:45:34.879Z,7919.00
2023-04-02T13:46:34.737Z,8996.00
2023-04-02T13:47:34.767Z,8079.00
2023-04-02T13:48:40.728Z,7682.00
2023-04-02T13:49:34.712Z,8211.00
2023-04-02T13:50:34.981Z,8206.00
2023-04-02T13:51:40.707Z,9046.00
2023-04-02T13:52:40.677Z,9431.00
2023-04-02T13:53:34.684Z,8420.00
2023-04-02T13:54:40.691Z,8119.00
2023-04-02T13:55:34.651Z,7799.00
2023-04-02T13:56:34.638Z,7911.00
2023-04-02T13:57:34.823Z,6941.00
2023-04-02T13:58:34.609Z,6488.00
2023-04-02T13:59:34.611Z,6384.00
2023-04-02T14:00:34.728Z,5952.00
2023-04-02T14:01:34.755Z,5653.00
2023-04-02T14:02:34.582Z,5477.00
2023-04-02T14:03:34.560Z,5059.00
2023-04-02T14:04:34.774Z,4804.00
2023-04-02T14:05:34.763Z,4577.00
2023-04-02T14:06:34.523Z,4140.00
2023-04-02T14:07:40.528Z,3409.00
2023-04-02T14:08:34.504Z,4123.00
2023-04-02T14:09:34.505Z,4502.00
2023-04-02T14:10:34.504Z,4614.00
2023-04-02T14:11:34.494Z,4122.00